Time;durP1;ratioP1;P1;durP2;ratioP2;P2;SDS_P1;SDS_P2;PMS_P1;PMS_P2;Temp;Humidity;BMP_temperature;BMP_pressure;BME280_temperature;BME280_humidity;BME280_pressure;Samples;Min_cycle;Max_cycle;Signal;HPM_P1;HPM_P2
2021/03/02 00:02:21;;;;;;;15.85;11.57;;;;;;;;;;4987373;28;20037;-66
2021/03/02 00:04:47;;;;;;;17.67;11.63;;;;;;;;;;4988540;28;20022;-66
2021/03/02 00:07:16;;;;;;;21.95;11.95;;;;;;;;;;4988319;28;20105;-66
2021/03/02 00:09:42;;;;;;;15.07;11.75;;;;;;;;;;4986835;28;20030;-67
2021/03/02 00:12:09;;;;;;;18.08;12.30;;;;;;;;;;4989364;28;20037;-67
2021/03/02 00:14:35;;;;;;;19.33;11.40;;;;;;;;;;4986383;28;20073;-66
2021/03/02 00:17:02;;;;;;;12.65;10.98;;;;;;;;;;5008462;28;20467;-66
2021/03/02 00:19:45;;;;;;;18.02;11.40;;;;;;;;;;4986053;28;20050;-67
2021/03/02 00:22:20;;;;;;;18.33;11.20;;;;;;;;;;4987046;28;20018;-66
2021/03/02 00:24:50;;;;;;;15.25;11.27;;;;;;;;;;4985444;28;20045;-66
2021/03/02 00:27:17;;;;;;;19.38;10.80;;;;;;;;;;4986324;28;20519;-66
2021/03/02 00:29:43;;;;;;;14.27;10.63;;;;;;;;;;4987717;28;20109;-66
2021/03/02 00:32:12;;;;;;;13.73;10.98;;;;;;;;;;4989070;28;20109;-66
2021/03/02 00:34:37;;;;;;;15.15;11.15;;;;;;;;;;4987197;28;20027;-66
2021/03/02 00:37:03;;;;;;;17.50;11.00;;;;;;;;;;4987541;28;21051;-66
2021/03/02 00:39:28;;;;;;;15.45;10.40;;;;;;;;;;4987643;28;20042;-66
2021/03/02 00:41:54;;;;;;;15.45;10.43;;;;;;;;;;4987758;28;20037;-66
2021/03/02 00:44:19;;;;;;;13.70;11.05;;;;;;;;;;4985877;28;20116;-66
2021/03/02 00:46:44;;;;;;;16.45;10.77;;;;;;;;;;4988816;28;20022;-66
2021/03/02 00:49:10;;;;;;;13.85;10.32;;;;;;;;;;4988171;28;20029;-66
2021/03/02 00:51:35;;;;;;;14.15;10.45;;;;;;;;;;4987647;28;20023;-66
2021/03/02 00:54:01;;;;;;;15.43;9.93;;;;;;;;;;4986501;28;20058;-66
2021/03/02 00:56:26;;;;;;;16.40;10.88;;;;;;;;;;4987988;28;20472;-67
2021/03/02 00:58:51;;;;;;;16.55;10.65;;;;;;;;;;4989279;28;20112;-66
2021/03/02 01:01:17;;;;;;;14.15;11.05;;;;;;;;;;4986670;28;20038;-66
2021/03/02 01:03:42;;;;;;;14.75;10.65;;;;;;;;;;4988533;28;20523;-66
2021/03/02 01:06:07;;;;;;;15.23;11.25;;;;;;;;;;4988820;28;20023;-66
2021/03/02 01:08:33;;;;;;;16.52;10.50;;;;;;;;;;4988324;28;20026;-66
2021/03/02 01:10:59;;;;;;;13.48;10.25;;;;;;;;;;4987299;28;20038;-66
2021/03/02 01:13:24;;;;;;;14.45;10.73;;;;;;;;;;4987909;28;20037;-66
2021/03/02 01:15:49;;;;;;;13.23;9.55;;;;;;;;;;4992453;28;20027;-66
2021/03/02 01:18:15;;;;;;;13.30;10.15;;;;;;;;;;4990552;28;20346;-67
2021/03/02 01:20:40;;;;;;;24.30;11.00;;;;;;;;;;4992507;28;20026;-66
2021/03/02 01:23:06;;;;;;;15.68;9.95;;;;;;;;;;4992685;28;20029;-66
2021/03/02 01:25:31;;;;;;;15.13;9.95;;;;;;;;;;4992315;28;20026;-66
2021/03/02 01:27:57;;;;;;;13.77;10.10;;;;;;;;;;4991672;28;20035;-66
2021/03/02 01:30:25;;;;;;;15.35;10.00;;;;;;;;;;4992059;28;20471;-66
2021/03/02 01:32:50;;;;;;;15.73;10.70;;;;;;;;;;4992157;28;20475;-66
2021/03/02 01:35:16;;;;;;;16.25;10.40;;;;;;;;;;4991494;28;20026;-66
2021/03/02 01:37:42;;;;;;;18.88;10.55;;;;;;;;;;4988971;28;20487;-66
2021/03/02 01:40:15;;;;;;;13.73;10.27;;;;;;;;;;4991238;28;20029;-67
2021/03/02 01:42:43;;;;;;;13.77;9.07;;;;;;;;;;4992477;28;20073;-66
2021/03/02 01:45:10;;;;;;;12.98;10.05;;;;;;;;;;4991523;28;20038;-66
2021/03/02 01:47:36;;;;;;;17.52;10.30;;;;;;;;;;4991910;28;20113;-66
2021/03/02 01:50:06;;;;;;;12.70;9.52;;;;;;;;;;4991828;28;20305;-66
2021/03/02 01:52:33;;;;;;;14.57;9.47;;;;;;;;;;4990626;28;22058;-65
2021/03/02 01:54:58;;;;;;;12.77;10.23;;;;;;;;;;4991050;28;20622;-65
2021/03/02 01:57:24;;;;;;;13.77;10.13;;;;;;;;;;4991504;28;20034;-65
2021/03/02 01:59:49;;;;;;;14.23;10.38;;;;;;;;;;4991135;28;20112;-66
2021/03/02 02:02:20;;;;;;;13.40;9.90;;;;;;;;;;4990793;28;20034;-65
2021/03/02 02:04:51;;;;;;;14.60;10.88;;;;;;;;;;4989753;28;20034;-65
2021/03/02 02:07:29;;;;;;;16.52;10.63;;;;;;;;;;4991443;28;20132;-65
2021/03/02 02:10:04;;;;;;;14.52;10.82;;;;;;;;;;4988645;28;20064;-65
2021/03/02 02:12:34;;;;;;;15.05;10.02;;;;;;;;;;4991488;28;20041;-66
2021/03/02 02:15:14;;;;;;;13.27;10.32;;;;;;;;;;4991176;28;20499;-65
2021/03/02 02:17:47;;;;;;;12.05;9.55;;;;;;;;;;4991357;28;20077;-65
2021/03/02 02:21:01;;;;;;;16.02;9.68;;;;;;;;;;4987777;28;20445;-65
2021/03/02 02:23:37;;;;;;;17.52;10.60;;;;;;;;;;4956427;28;20071;-65
2021/03/02 02:26:30;;;;;;;15.05;11.02;;;;;;;;;;4989091;28;20050;-66
2021/03/02 02:28:58;;;;;;;13.85;9.65;;;;;;;;;;4990916;28;20030;-65
2021/03/02 02:31:25;;;;;;;13.30;9.85;;;;;;;;;;4991106;28;20464;-65
2021/03/02 02:33:52;;;;;;;17.60;10.18;;;;;;;;;;4991212;28;20034;-66
2021/03/02 02:36:19;;;;;;;13.23;9.18;;;;;;;;;;4988380;28;20503;-65
2021/03/02 02:38:59;;;;;;;13.57;9.77;;;;;;;;;;4988775;28;20045;-65
2021/03/02 02:41:27;;;;;;;12.55;8.38;;;;;;;;;;4989438;28;20098;-65
2021/03/02 02:43:53;;;;;;;11.93;9.05;;;;;;;;;;4990523;28;20044;-65
2021/03/02 02:46:20;;;;;;;18.33;10.32;;;;;;;;;;4990522;28;20034;-66
2021/03/02 02:48:47;;;;;;;16.42;9.30;;;;;;;;;;4987819;28;20030;-66
2021/03/02 02:51:14;;;;;;;15.00;9.48;;;;;;;;;;4988718;28;20384;-66
2021/03/02 02:53:40;;;;;;;12.65;8.60;;;;;;;;;;4990758;28;20456;-65
2021/03/02 02:56:07;;;;;;;13.75;8.93;;;;;;;;;;4990659;28;20134;-66
2021/03/02 02:59:00;;;;;;;14.65;9.02;;;;;;;;;;4990278;28;20046;-65
2021/03/02 03:01:28;;;;;;;12.45;8.30;;;;;;;;;;4986560;28;20046;-65
2021/03/02 03:03:56;;;;;;;15.75;9.75;;;;;;;;;;4989546;28;20034;-65
2021/03/02 03:06:26;;;;;;;12.05;9.30;;;;;;;;;;4990412;28;20045;-65
2021/03/02 03:08:52;;;;;;;15.88;10.65;;;;;;;;;;4989701;28;20066;-65
2021/03/02 03:11:22;;;;;;;13.98;9.75;;;;;;;;;;4987484;28;20246;-66
2021/03/02 03:13:49;;;;;;;13.88;9.88;;;;;;;;;;4988393;28;20030;-66
2021/03/02 03:16:18;;;;;;;11.55;9.02;;;;;;;;;;4988971;28;20555;-65
2021/03/02 03:18:46;;;;;;;17.65;10.15;;;;;;;;;;4990642;28;20085;-65
2021/03/02 03:21:12;;;;;;;11.80;8.85;;;;;;;;;;4986362;28;20265;-65
2021/03/02 03:23:39;;;;;;;12.43;9.07;;;;;;;;;;4988566;28;20113;-65
2021/03/02 03:26:06;;;;;;;13.43;9.32;;;;;;;;;;4989247;28;20125;-66
2021/03/02 03:28:32;;;;;;;15.43;9.27;;;;;;;;;;4989946;28;20037;-66
2021/03/02 03:30:59;;;;;;;15.18;9.35;;;;;;;;;;4988491;28;20069;-65
2021/03/02 03:33:25;;;;;;;14.18;9.63;;;;;;;;;;4989961;28;20130;-66
2021/03/02 03:35:51;;;;;;;17.80;10.45;;;;;;;;;;4987986;28;20173;-66
2021/03/02 03:38:17;;;;;;;12.45;9.18;;;;;;;;;;4989399;28;20061;-65
2021/03/02 03:40:42;;;;;;;17.02;10.35;;;;;;;;;;4989737;28;20026;-65
2021/03/02 03:43:08;;;;;;;10.50;7.97;;;;;;;;;;4987068;28;20066;-65
2021/03/02 03:45:33;;;;;;;13.73;9.45;;;;;;;;;;4989738;28;20022;-65
2021/03/02 03:47:59;;;;;;;13.82;9.63;;;;;;;;;;4988934;28;20764;-65
2021/03/02 03:50:24;;;;;;;19.83;9.80;;;;;;;;;;4989610;28;20041;-65
2021/03/02 03:52:54;;;;;;;12.73;8.75;;;;;;;;;;4989814;28;20041;-66
2021/03/02 03:55:24;;;;;;;15.43;9.30;;;;;;;;;;4987417;28;20030;-66
2021/03/02 03:57:49;;;;;;;12.40;8.65;;;;;;;;;;4986964;28;20034;-66
2021/03/02 04:00:15;;;;;;;15.50;9.98;;;;;;;;;;4989569;28;20045;-65
2021/03/02 04:02:41;;;;;;;13.65;10.02;;;;;;;;;;4989769;28;20030;-66
2021/03/02 04:05:07;;;;;;;13.48;9.63;;;;;;;;;;4986700;28;20034;-66
2021/03/02 04:07:33;;;;;;;11.30;9.18;;;;;;;;;;4989175;28;22251;-66
2021/03/02 04:10:00;;;;;;;14.23;9.80;;;;;;;;;;4989122;28;20034;-66
2021/03/02 04:12:25;;;;;;;12.50;9.30;;;;;;;;;;4989489;28;20037;-65
2021/03/02 04:14:50;;;;;;;12.90;8.98;;;;;;;;;;4986239;28;20031;-65
2021/03/02 04:17:16;;;;;;;13.30;10.18;;;;;;;;;;4989040;28;20106;-66
2021/03/02 04:19:41;;;;;;;15.95;10.32;;;;;;;;;;4989872;28;20041;-65
2021/03/02 04:22:07;;;;;;;17.35;10.13;;;;;;;;;;4989545;28;20038;-65
2021/03/02 04:24:32;;;;;;;13.50;9.05;;;;;;;;;;4988514;28;20619;-66
2021/03/02 04:26:57;;;;;;;16.63;10.38;;;;;;;;;;4989152;28;20098;-65
2021/03/02 04:29:23;;;;;;;13.48;9.85;;;;;;;;;;4989124;28;20027;-64
2021/03/02 04:31:48;;;;;;;16.30;9.88;;;;;;;;;;4987661;28;20130;-65
2021/03/02 04:34:14;;;;;;;16.23;10.27;;;;;;;;;;4988595;28;20030;-65
2021/03/02 04:36:41;;;;;;;13.57;9.55;;;;;;;;;;4987696;28;20105;-65
2021/03/02 04:39:06;;;;;;;12.13;9.65;;;;;;;;;;4989271;28;20117;-66
2021/03/02 04:41:31;;;;;;;18.27;9.77;;;;;;;;;;4986989;28;20134;-64
2021/03/02 04:43:57;;;;;;;15.77;9.65;;;;;;;;;;4989412;28;20026;-66
2021/03/02 04:46:22;;;;;;;15.80;9.75;;;;;;;;;;4986193;28;20604;-66
2021/03/02 04:48:48;;;;;;;16.35;9.32;;;;;;;;;;4992727;28;20033;-65
2021/03/02 04:51:14;;;;;;;13.57;9.98;;;;;;;;;;4992608;28;20401;-66
2021/03/02 04:53:39;;;;;;;16.42;9.90;;;;;;;;;;4993231;28;20088;-65
2021/03/02 04:56:05;;;;;;;15.52;10.85;;;;;;;;;;4992947;28;20026;-65
2021/03/02 04:58:30;;;;;;;13.88;9.63;;;;;;;;;;4991821;28;20424;-66
2021/03/02 05:00:56;;;;;;;14.70;9.75;;;;;;;;;;4992916;28;20026;-65
2021/03/02 05:03:21;;;;;;;13.30;9.60;;;;;;;;;;4992664;28;20375;-65
2021/03/02 05:05:47;;;;;;;13.13;9.48;;;;;;;;;;4993068;28;20030;-65
2021/03/02 05:08:12;;;;;;;14.70;9.77;;;;;;;;;;4991222;28;20650;-67
2021/03/02 05:10:37;;;;;;;19.00;10.60;;;;;;;;;;4992635;28;20049;-65
2021/03/02 05:13:03;;;;;;;16.40;10.32;;;;;;;;;;4990222;28;20571;-65
2021/03/02 05:15:28;;;;;;;15.70;10.90;;;;;;;;;;4991254;28;20149;-65
2021/03/02 05:17:53;;;;;;;16.50;9.77;;;;;;;;;;4991932;28;20101;-65
2021/03/02 05:20:19;;;;;;;15.75;9.32;;;;;;;;;;4991620;28;20338;-65
2021/03/02 05:22:44;;;;;;;12.95;9.35;;;;;;;;;;4992235;28;20034;-65
2021/03/02 05:25:10;;;;;;;20.20;9.13;;;;;;;;;;4991991;28;20049;-65
2021/03/02 05:27:35;;;;;;;14.45;10.15;;;;;;;;;;4992056;28;20069;-65
2021/03/02 05:30:01;;;;;;;14.82;9.82;;;;;;;;;;4992732;28;20034;-65
2021/03/02 05:32:27;;;;;;;16.65;10.73;;;;;;;;;;4991077;28;20034;-65
2021/03/02 05:34:52;;;;;;;17.88;10.68;;;;;;;;;;4992407;28;20034;-65
2021/03/02 05:37:18;;;;;;;15.13;9.73;;;;;;;;;;4989379;28;20026;-66
2021/03/02 05:39:43;;;;;;;13.32;9.98;;;;;;;;;;4992249;28;20415;-65
2021/03/02 05:42:09;;;;;;;15.63;10.02;;;;;;;;;;4991231;28;20034;-66
2021/03/02 05:44:34;;;;;;;11.98;9.23;;;;;;;;;;4991630;28;20087;-66
2021/03/02 05:47:00;;;;;;;16.08;10.23;;;;;;;;;;4991539;28;20030;-65
2021/03/02 05:49:26;;;;;;;14.30;10.77;;;;;;;;;;4989665;28;20117;-66
2021/03/02 05:51:52;;;;;;;12.20;9.45;;;;;;;;;;4992063;28;20022;-66
2021/03/02 05:54:18;;;;;;;16.58;10.13;;;;;;;;;;4986301;28;20034;-65
2021/03/02 05:56:43;;;;;;;13.38;9.20;;;;;;;;;;4988607;28;20510;-65
2021/03/02 05:59:09;;;;;;;17.17;10.25;;;;;;;;;;4989167;28;20046;-64
2021/03/02 06:01:36;;;;;;;14.65;9.65;;;;;;;;;;4987186;28;20053;-65
2021/03/02 06:04:03;;;;;;;21.27;9.80;;;;;;;;;;4985059;28;20041;-64
2021/03/02 06:06:28;;;;;;;15.95;9.48;;;;;;;;;;4984036;28;20136;-65
2021/03/02 06:08:53;;;;;;;12.80;9.52;;;;;;;;;;4984884;28;20282;-65
2021/03/02 06:11:31;;;;;;;14.45;9.10;;;;;;;;;;4985184;28;20065;-65
2021/03/02 06:14:17;;;;;;;12.82;8.93;;;;;;;;;;4987646;28;20041;-65
2021/03/02 06:16:50;;;;;;;12.57;9.05;;;;;;;;;;4990753;28;20065;-65
2021/03/02 06:19:17;;;;;;;15.38;9.82;;;;;;;;;;4987104;28;20453;-66
2021/03/02 06:21:43;;;;;;;14.68;10.02;;;;;;;;;;4987141;28;20066;-65
2021/03/02 06:24:09;;;;;;;21.98;10.02;;;;;;;;;;4989839;28;20058;-65
2021/03/02 06:26:37;;;;;;;13.73;9.35;;;;;;;;;;4990702;28;20069;-64
2021/03/02 06:29:16;;;;;;;13.82;9.95;;;;;;;;;;4989694;28;20030;-65
2021/03/02 06:31:42;;;;;;;17.08;10.40;;;;;;;;;;4983477;28;20117;-65
2021/03/02 06:34:12;;;;;;;20.70;10.80;;;;;;;;;;4989476;28;20034;-64
2021/03/02 06:36:40;;;;;;;13.68;9.90;;;;;;;;;;4988804;28;20038;-65
2021/03/02 06:39:41;;;;;;;16.60;10.52;;;;;;;;;;4987851;28;20053;-65
2021/03/02 06:42:19;;;;;;;14.90;10.18;;;;;;;;;;4976861;28;20038;-65
2021/03/02 06:44:49;;;;;;;16.70;10.23;;;;;;;;;;4987221;28;20038;-65
2021/03/02 06:47:36;;;;;;;18.38;11.52;;;;;;;;;;4984732;28;20050;-64
2021/03/02 06:50:21;;;;;;;16.27;10.95;;;;;;;;;;4987994;28;20034;-65
2021/03/02 06:52:47;;;;;;;20.08;12.02;;;;;;;;;;4985300;28;20038;-65
2021/03/02 06:55:15;;;;;;;18.75;11.57;;;;;;;;;;4990179;28;20091;-65
2021/03/02 06:57:45;;;;;;;16.90;10.50;;;;;;;;;;4987714;28;20341;-58
2021/03/02 07:00:11;;;;;;;19.13;10.23;;;;;;;;;;4984904;28;20246;-58
2021/03/02 07:02:41;;;;;;;16.42;10.52;;;;;;;;;;4982481;28;20031;-65
2021/03/02 07:05:15;;;;;;;18.58;10.90;;;;;;;;;;4982480;28;20181;-58
2021/03/02 07:07:57;;;;;;;16.20;10.98;;;;;;;;;;4986015;28;20038;-59
2021/03/02 07:10:24;;;;;;;19.30;10.27;;;;;;;;;;4988408;28;20030;-59
2021/03/02 07:12:53;;;;;;;13.38;9.80;;;;;;;;;;4989927;28;20088;-65
2021/03/02 07:15:19;;;;;;;16.15;9.68;;;;;;;;;;4987426;28;20117;-59
2021/03/02 07:17:49;;;;;;;14.43;9.27;;;;;;;;;;4978779;28;20125;-64
2021/03/02 07:20:18;;;;;;;14.95;9.90;;;;;;;;;;4985307;28;20045;-64
2021/03/02 07:22:52;;;;;;;14.40;10.25;;;;;;;;;;4988143;28;20045;-65
2021/03/02 07:25:23;;;;;;;14.80;10.65;;;;;;;;;;4987437;28;20395;-65
2021/03/02 07:27:51;;;;;;;11.27;9.32;;;;;;;;;;4984738;28;20018;-65
2021/03/02 07:30:17;;;;;;;15.20;10.25;;;;;;;;;;4989766;28;20057;-65
2021/03/02 07:32:43;;;;;;;17.23;10.35;;;;;;;;;;4989834;28;20344;-58
2021/03/02 07:35:14;;;;;;;14.32;9.88;;;;;;;;;;4989909;28;20630;-58
2021/03/02 07:37:40;;;;;;;12.82;9.10;;;;;;;;;;4987138;28;20026;-58
2021/03/02 07:40:13;;;;;;;13.68;10.07;;;;;;;;;;4981058;28;20069;-58
2021/03/02 07:42:39;;;;;;;13.68;9.55;;;;;;;;;;4987223;28;20030;-59
2021/03/02 07:45:16;;;;;;;14.95;9.38;;;;;;;;;;4986499;28;20543;-59
2021/03/02 07:47:46;;;;;;;17.17;9.60;;;;;;;;;;4988365;28;20026;-65
2021/03/02 07:50:24;;;;;;;15.50;10.23;;;;;;;;;;4988979;28;20034;-65
2021/03/02 07:53:21;;;;;;;18.48;9.70;;;;;;;;;;4986691;28;20038;-66
2021/03/02 07:55:48;;;;;;;13.43;9.68;;;;;;;;;;4986248;28;20018;-60
2021/03/02 07:58:21;;;;;;;14.63;9.52;;;;;;;;;;4985941;28;20042;-60
2021/03/02 08:00:51;;;;;;;11.85;9.15;;;;;;;;;;4988137;28;20036;-59
2021/03/02 08:03:21;;;;;;;13.73;9.80;;;;;;;;;;4984337;28;20037;-59
2021/03/02 08:05:48;;;;;;;15.57;9.95;;;;;;;;;;4987159;28;20038;-59
2021/03/02 08:08:23;;;;;;;18.30;10.50;;;;;;;;;;4989180;28;20053;-66
2021/03/02 08:10:49;;;;;;;17.33;9.88;;;;;;;;;;4986264;28;20038;-65
2021/03/02 08:13:42;;;;;;;15.82;10.75;;;;;;;;;;4987053;28;20622;-59
2021/03/02 08:16:13;;;;;;;17.90;10.02;;;;;;;;;;4985765;28;20042;-59
2021/03/02 08:18:39;;;;;;;20.47;10.53;;;;;;;;;;4986491;28;20049;-59
2021/03/02 08:21:15;;;;;;;15.13;10.52;;;;;;;;;;4986892;28;20041;-59
2021/03/02 08:23:50;;;;;;;19.33;11.00;;;;;;;;;;4994027;28;20076;-59
2021/03/02 08:26:28;;;;;;;14.85;9.98;;;;;;;;;;4994952;28;20060;-59
2021/03/02 08:29:17;;;;;;;16.45;10.68;;;;;;;;;;4992270;28;20060;-59
2021/03/02 08:31:49;;;;;;;16.20;10.35;;;;;;;;;;4990274;28;20046;-58
2021/03/02 08:34:20;;;;;;;14.38;9.77;;;;;;;;;;4991430;28;20038;-58
2021/03/02 08:36:50;;;;;;;15.38;10.65;;;;;;;;;;4993198;28;20169;-58
2021/03/02 08:39:18;;;;;;;18.23;10.38;;;;;;;;;;4995354;28;20065;-58
2021/03/02 08:41:46;;;;;;;13.48;10.73;;;;;;;;;;4994297;28;20030;-58
2021/03/02 08:44:25;;;;;;;17.10;11.48;;;;;;;;;;5009842;28;20037;-58
2021/03/02 08:46:54;;;;;;;16.55;10.15;;;;;;;;;;4992510;28;20037;-59
2021/03/02 08:49:20;;;;;;;15.38;10.98;;;;;;;;;;4991388;28;20044;-60
2021/03/02 08:51:46;;;;;;;14.10;10.32;;;;;;;;;;4991259;28;20027;-59
2021/03/02 08:54:12;;;;;;;16.80;12.32;;;;;;;;;;4994760;28;20610;-59
2021/03/02 08:56:37;;;;;;;27.58;19.45;;;;;;;;;;4994279;28;20031;-59
2021/03/02 08:59:12;;;;;;;20.23;15.05;;;;;;;;;;4989303;28;20423;-60
2021/03/02 09:01:40;;;;;;;16.85;12.40;;;;;;;;;;4994814;28;20125;-66
2021/03/02 09:04:17;;;;;;;15.90;11.40;;;;;;;;;;4993962;28;20030;-60
2021/03/02 09:06:44;;;;;;;16.80;10.48;;;;;;;;;;4992805;28;20113;-60
2021/03/02 09:09:12;;;;;;;15.07;11.10;;;;;;;;;;4990724;28;20045;-59
2021/03/02 09:11:38;;;;;;;15.93;11.05;;;;;;;;;;4993528;28;20065;-60
2021/03/02 09:14:10;;;;;;;17.88;11.13;;;;;;;;;;4990919;28;20034;-60
2021/03/02 09:16:45;;;;;;;15.80;10.95;;;;;;;;;;4985551;28;20038;-60
2021/03/02 09:19:15;;;;;;;16.17;11.25;;;;;;;;;;4989829;28;20126;-67
2021/03/02 09:21:55;;;;;;;15.37;10.60;;;;;;;;;;4991535;28;20030;-67
2021/03/02 09:24:23;;;;;;;18.92;11.05;;;;;;;;;;4990330;28;20026;-67
2021/03/02 09:27:00;;;;;;;17.25;12.13;;;;;;;;;;4993453;28;20387;-66
2021/03/02 09:29:29;;;;;;;15.27;11.55;;;;;;;;;;4994537;28;20471;-65
2021/03/02 09:31:57;;;;;;;18.95;12.25;;;;;;;;;;4989227;28;20034;-65
2021/03/02 09:34:31;;;;;;;18.98;12.45;;;;;;;;;;4986123;28;20042;-65
2021/03/02 09:37:11;;;;;;;19.60;12.55;;;;;;;;;;4989021;28;20030;-66
2021/03/02 09:39:39;;;;;;;14.90;10.18;;;;;;;;;;4988257;28;20034;-65
2021/03/02 09:42:19;;;;;;;17.73;11.25;;;;;;;;;;4990705;28;20034;-65
2021/03/02 09:44:52;;;;;;;15.85;10.93;;;;;;;;;;4989357;28;20127;-65
2021/03/02 09:47:38;;;;;;;18.98;11.90;;;;;;;;;;4986992;28;20038;-65
2021/03/02 09:50:08;;;;;;;14.27;10.60;;;;;;;;;;4991730;28;20030;-66
2021/03/02 09:52:34;;;;;;;17.98;11.05;;;;;;;;;;4991764;28;20038;-66
2021/03/02 09:55:18;;;;;;;15.57;11.02;;;;;;;;;;4990506;28;20041;-66
2021/03/02 10:00:38;;;;;;;18.52;11.15;;;;;;;;;;4991263;28;20097;-66
2021/03/02 10:03:08;;;;;;;13.57;10.38;;;;;;;;;;4991430;28;20109;-66
2021/03/02 10:05:36;;;;;;;14.07;10.40;;;;;;;;;;4990205;28;20035;-66
2021/03/02 10:08:25;;;;;;;14.70;11.15;;;;;;;;;;4990195;28;20109;-66
2021/03/02 10:10:52;;;;;;;14.98;11.55;;;;;;;;;;4990113;28;20092;-66
2021/03/02 10:13:22;;;;;;;15.85;10.85;;;;;;;;;;4991545;28;20022;-67
2021/03/02 10:15:47;;;;;;;15.48;11.40;;;;;;;;;;4987233;28;20121;-67
2021/03/02 10:18:24;;;;;;;15.90;11.32;;;;;;;;;;4990336;28;20129;-67
2021/03/02 10:21:07;;;;;;;16.00;11.80;;;;;;;;;;4987564;28;20136;-67
2021/03/02 10:23:33;;;;;;;13.20;11.50;;;;;;;;;;4990223;28;20553;-67
2021/03/02 10:25:59;;;;;;;14.38;10.07;;;;;;;;;;4988708;28;20034;-67
2021/03/02 10:28:32;;;;;;;24.73;16.83;;;;;;;;;;4990363;28;20495;-67
2021/03/02 10:30:58;;;;;;;15.77;11.05;;;;;;;;;;4990151;28;20026;-67
2021/03/02 10:33:23;;;;;;;15.60;10.80;;;;;;;;;;4989721;28;20109;-67
2021/03/02 10:35:49;;;;;;;16.23;10.90;;;;;;;;;;4990256;28;20590;-67
2021/03/02 10:38:14;;;;;;;14.07;10.77;;;;;;;;;;4990201;28;20026;-67
2021/03/02 10:40:39;;;;;;;14.05;10.57;;;;;;;;;;4987693;28;20030;-67
2021/03/02 10:43:05;;;;;;;16.17;10.77;;;;;;;;;;4989000;28;20464;-67
2021/03/02 10:45:30;;;;;;;14.25;10.30;;;;;;;;;;4987482;28;20117;-67
2021/03/02 10:47:55;;;;;;;13.07;10.30;;;;;;;;;;4990506;28;20041;-66
2021/03/02 10:50:21;;;;;;;16.50;10.88;;;;;;;;;;4989179;28;20109;-65
2021/03/02 10:52:47;;;;;;;15.40;10.70;;;;;;;;;;4990622;28;20153;-65
2021/03/02 10:55:12;;;;;;;15.93;11.60;;;;;;;;;;4988470;28;20046;-67
2021/03/02 10:57:38;;;;;;;15.25;10.75;;;;;;;;;;4990179;28;20234;-67
2021/03/02 11:00:05;;;;;;;14.32;10.23;;;;;;;;;;4990331;28;20037;-66
2021/03/02 11:02:30;;;;;;;15.68;10.73;;;;;;;;;;4987828;28;20041;-65
2021/03/02 11:04:55;;;;;;;16.65;11.18;;;;;;;;;;4989625;28;20532;-65
2021/03/02 11:07:21;;;;;;;15.68;10.80;;;;;;;;;;4990035;28;20030;-67
2021/03/02 11:09:49;;;;;;;14.73;10.27;;;;;;;;;;4990519;28;20479;-66
2021/03/02 11:12:14;;;;;;;15.00;10.93;;;;;;;;;;4988975;28;20072;-59
2021/03/02 11:14:39;;;;;;;14.88;11.18;;;;;;;;;;4989768;28;20030;-58
2021/03/02 11:17:05;;;;;;;13.70;10.48;;;;;;;;;;4987533;28;20030;-58
2021/03/02 11:19:30;;;;;;;19.95;10.93;;;;;;;;;;4989456;28;20042;-59
2021/03/02 11:21:55;;;;;;;15.65;10.60;;;;;;;;;;4990127;28;20109;-59
2021/03/02 11:24:21;;;;;;;15.27;10.13;;;;;;;;;;4989987;28;20026;-59
2021/03/02 11:26:47;;;;;;;13.13;10.18;;;;;;;;;;4988093;28;20085;-59
2021/03/02 11:29:12;;;;;;;13.70;10.25;;;;;;;;;;4989339;28;20030;-59
2021/03/02 11:31:38;;;;;;;13.32;10.23;;;;;;;;;;4987419;28;20447;-59
2021/03/02 11:34:03;;;;;;;17.98;11.60;;;;;;;;;;4989826;28;20157;-59
2021/03/02 11:36:28;;;;;;;15.57;10.30;;;;;;;;;;4989128;28;20136;-59
2021/03/02 11:38:54;;;;;;;13.80;10.95;;;;;;;;;;4987911;28;20464;-59
2021/03/02 11:41:19;;;;;;;14.38;10.75;;;;;;;;;;4989444;28;20338;-59
2021/03/02 11:43:45;;;;;;;13.60;9.77;;;;;;;;;;4989745;28;20030;-59
2021/03/02 11:46:10;;;;;;;14.30;9.18;;;;;;;;;;4987053;28;20034;-59
2021/03/02 11:48:35;;;;;;;19.05;13.50;;;;;;;;;;4984581;28;20360;-59
2021/03/02 11:51:01;;;;;;;16.92;12.65;;;;;;;;;;4989293;28;20372;-59
2021/03/02 11:53:26;;;;;;;18.55;13.82;;;;;;;;;;4989598;28;20108;-59
2021/03/02 11:55:53;;;;;;;19.25;10.15;;;;;;;;;;4988892;28;20034;-59
2021/03/02 11:58:18;;;;;;;17.60;10.57;;;;;;;;;;4987894;28;20034;-59
2021/03/02 12:00:44;;;;;;;12.77;9.90;;;;;;;;;;4987965;28;20064;-59
2021/03/02 12:03:09;;;;;;;13.40;9.43;;;;;;;;;;4984831;28;20044;-59
2021/03/02 12:05:35;;;;;;;17.10;10.88;;;;;;;;;;4989503;28;20041;-59
2021/03/02 12:08:01;;;;;;;12.55;9.98;;;;;;;;;;4989404;28;20045;-58
2021/03/02 12:10:26;;;;;;;13.85;10.60;;;;;;;;;;4988785;28;20038;-58
2021/03/02 12:12:52;;;;;;;22.38;10.73;;;;;;;;;;4989760;28;20112;-59
2021/03/02 12:15:17;;;;;;;14.70;10.23;;;;;;;;;;4988281;28;20030;-59
2021/03/02 12:17:42;;;;;;;13.95;9.98;;;;;;;;;;4986419;28;20066;-59
2021/03/02 12:20:09;;;;;;;13.35;9.18;;;;;;;;;;4989072;28;20068;-58
2021/03/02 12:22:37;;;;;;;13.45;9.60;;;;;;;;;;4987863;28;20092;-59
2021/03/02 12:25:04;;;;;;;12.32;9.27;;;;;;;;;;4987056;28;20041;-59
2021/03/02 12:27:29;;;;;;;12.73;9.60;;;;;;;;;;4980895;28;20030;-59
2021/03/02 12:29:54;;;;;;;15.90;10.65;;;;;;;;;;4987740;28;20100;-59
2021/03/02 12:32:20;;;;;;;12.68;10.65;;;;;;;;;;4984942;28;20030;-59
2021/03/02 12:34:46;;;;;;;14.52;10.00;;;;;;;;;;4982778;28;20054;-67
2021/03/02 12:37:12;;;;;;;13.25;10.73;;;;;;;;;;4987365;28;20048;-67
2021/03/02 12:39:37;;;;;;;13.20;9.07;;;;;;;;;;4989043;28;20096;-67
2021/03/02 12:42:03;;;;;;;12.80;9.50;;;;;;;;;;4987481;28;20368;-67
2021/03/02 12:44:28;;;;;;;14.43;10.20;;;;;;;;;;4988107;28;20054;-68
2021/03/02 12:46:54;;;;;;;13.48;10.00;;;;;;;;;;4984932;28;20534;-68
2021/03/02 12:49:19;;;;;;;13.63;10.25;;;;;;;;;;4981481;28;20031;-67
2021/03/02 12:51:45;;;;;;;15.30;9.68;;;;;;;;;;4985544;28;20040;-67
2021/03/02 12:54:10;;;;;;;13.68;9.38;;;;;;;;;;4988125;28;20356;-67
2021/03/02 12:56:36;;;;;;;17.05;10.95;;;;;;;;;;4986997;28;20037;-68
2021/03/02 12:59:01;;;;;;;13.63;9.45;;;;;;;;;;4981270;28;20022;-67
2021/03/02 13:01:30;;;;;;;19.92;10.48;;;;;;;;;;4981727;28;20066;-67
2021/03/02 13:03:59;;;;;;;15.82;9.82;;;;;;;;;;4985721;28;20034;-67
2021/03/02 13:06:25;;;;;;;15.65;10.18;;;;;;;;;;4981149;28;20049;-67
2021/03/02 13:08:52;;;;;;;16.15;10.82;;;;;;;;;;4991334;28;20038;-67
2021/03/02 13:11:18;;;;;;;14.00;9.38;;;;;;;;;;4989366;28;20077;-68
2021/03/02 13:13:43;;;;;;;15.60;10.00;;;;;;;;;;4991133;28;20065;-68
2021/03/02 13:16:09;;;;;;;16.80;10.60;;;;;;;;;;4991356;28;20041;-68
2021/03/02 13:18:35;;;;;;;16.25;10.23;;;;;;;;;;4991488;28;20053;-68
2021/03/02 13:21:02;;;;;;;12.85;9.20;;;;;;;;;;4991955;28;20459;-68
2021/03/02 13:23:27;;;;;;;11.52;9.30;;;;;;;;;;4988923;28;20052;-68
2021/03/02 13:25:54;;;;;;;13.15;9.63;;;;;;;;;;4991071;28;20582;-68
2021/03/02 13:28:27;;;;;;;18.85;9.85;;;;;;;;;;4984986;28;20057;-68
2021/03/02 13:30:54;;;;;;;10.82;8.95;;;;;;;;;;4989672;28;20101;-68
2021/03/02 13:33:25;;;;;;;15.27;9.57;;;;;;;;;;4988470;28;20033;-60
2021/03/02 13:35:50;;;;;;;;;;;;;;;;;;4988929;28;20482;-67
2021/03/02 13:38:17;;;;;;;11.30;9.15;;;;;;;;;;4987212;28;19918;-60
2021/03/02 13:40:42;;;;;;;13.73;9.50;;;;;;;;;;4989015;28;20034;-68
2021/03/02 13:43:08;;;;;;;17.75;10.57;;;;;;;;;;4990548;28;20057;-59
2021/03/02 13:45:34;;;;;;;12.02;8.68;;;;;;;;;;4991849;28;20738;-67
2021/03/02 13:48:00;;;;;;;17.60;9.50;;;;;;;;;;4988231;28;20030;-59
2021/03/02 13:50:26;;;;;;;18.27;10.32;;;;;;;;;;4990031;28;20475;-59
2021/03/02 13:52:53;;;;;;;15.30;9.98;;;;;;;;;;4990928;28;20518;-67
2021/03/02 13:55:20;;;;;;;19.20;10.00;;;;;;;;;;4988004;28;20090;-67
2021/03/02 13:57:46;;;;;;;14.75;9.85;;;;;;;;;;4985634;28;20062;-67
2021/03/02 14:00:15;;;;;;;14.35;9.25;;;;;;;;;;4989363;28;20030;-67
2021/03/02 14:02:45;;;;;;;20.50;10.25;;;;;;;;;;4987394;28;20049;-67
2021/03/02 14:05:25;;;;;;;13.23;9.57;;;;;;;;;;4988732;28;20034;-68
2021/03/02 14:07:56;;;;;;;12.63;8.77;;;;;;;;;;4991305;28;20110;-68
2021/03/02 14:10:22;;;;;;;12.50;10.27;;;;;;;;;;4987644;28;20030;-67
2021/03/02 14:12:52;;;;;;;11.77;9.63;;;;;;;;;;4990669;28;20026;-59
2021/03/02 14:15:19;;;;;;;16.67;9.68;;;;;;;;;;4985139;28;20667;-59
2021/03/02 14:17:46;;;;;;;15.82;9.57;;;;;;;;;;4977767;28;20060;-60
2021/03/02 14:20:13;;;;;;;12.25;8.80;;;;;;;;;;4986485;28;20045;-60
2021/03/02 14:22:39;;;;;;;14.13;9.57;;;;;;;;;;4985660;28;20100;-68
2021/03/02 14:25:05;;;;;;;16.63;9.68;;;;;;;;;;4987948;28;20034;-60
2021/03/02 14:27:30;;;;;;;14.55;9.13;;;;;;;;;;4988574;28;20054;-60
2021/03/02 14:29:56;;;;;;;16.05;8.93;;;;;;;;;;4986509;28;20061;-66
2021/03/02 14:32:22;;;;;;;11.50;8.95;;;;;;;;;;4971248;28;20113;-59
2021/03/02 14:34:49;;;;;;;16.13;10.05;;;;;;;;;;4985325;28;20112;-58